createdAt,value
2023-03-24T00:01:08.581Z,98579.76
2023-03-24T00:07:14.465Z,98580.71
2023-03-24T00:13:16.327Z,98577.95
2023-03-24T00:19:19.416Z,98579.31
2023-03-24T00:25:23.122Z,98580.85
2023-03-24T00:31:25.158Z,98578.89
2023-03-24T00:37:26.821Z,98574.19
2023-03-24T00:43:29.139Z,98571.25
2023-03-24T00:49:44.182Z,98563.85
2023-03-24T00:55:48.799Z,98558.30
2023-03-24T01:01:50.868Z,98554.92
2023-03-24T01:07:55.720Z,98550.95
2023-03-24T01:13:57.928Z,98554.33
2023-03-24T01:20:06.893Z,98542.48
2023-03-24T01:26:09.993Z,98539.00
2023-03-24T01:32:11.797Z,98529.28
2023-03-24T01:38:14.064Z,98530.70
2023-03-24T01:44:33.611Z,98530.48
2023-03-24T01:50:35.326Z,98528.50
2023-03-24T01:56:41.868Z,98526.58
2023-03-24T02:02:48.677Z,98521.23
2023-03-24T02:08:54.912Z,98520.33
2023-03-24T02:14:57.111Z,98516.47
2023-03-24T02:20:58.606Z,98512.70
2023-03-24T02:27:03.046Z,98514.36
2023-03-24T02:33:16.879Z,98509.59
2023-03-24T02:39:29.294Z,98503.30
2023-03-24T02:45:44.730Z,98500.67
2023-03-24T02:51:57.892Z,98495.64
2023-03-24T02:58:11.025Z,98495.42
2023-03-24T03:04:32.314Z,98490.16
2023-03-24T03:10:43.253Z,98485.89
2023-03-24T03:16:59.203Z,98471.45
2023-03-24T03:23:05.123Z,98465.22
2023-03-24T03:29:21.280Z,98465.38
2023-03-24T03:36:00.339Z,98472.48
2023-03-24T03:42:02.876Z,98471.29
2023-03-24T03:48:05.260Z,98469.73
2023-03-24T03:54:10.117Z,98468.20
2023-03-24T04:00:16.416Z,98463.61
2023-03-24T04:06:53.184Z,98454.86
2023-03-24T04:13:13.808Z,98447.85
2023-03-24T04:20:11.542Z,98447.09
2023-03-24T04:26:28.034Z,98448.91
2023-03-24T04:32:46.318Z,98448.05
2023-03-24T04:38:52.516Z,98452.23
2023-03-24T04:45:05.683Z,98456.89
2023-03-24T04:51:21.644Z,98463.13
2023-03-24T04:57:34.624Z,98465.56
2023-03-24T05:03:41.527Z,98468.42
2023-03-24T05:09:43.260Z,98471.69
2023-03-24T05:15:46.099Z,98479.09
2023-03-24T05:22:08.074Z,98475.46
2023-03-24T05:28:09.626Z,98476.61
2023-03-24T05:34:11.091Z,98480.95
2023-03-24T05:40:22.655Z,98481.01
2023-03-24T05:46:44.489Z,98481.17
2023-03-24T05:52:45.974Z,98489.29
2023-03-24T05:59:05.119Z,98490.23
2023-03-24T06:05:47.102Z,98493.73
2023-03-24T06:11:49.531Z,98495.09
2023-03-24T06:17:55.090Z,98496.21
2023-03-24T06:24:07.076Z,98496.75
2023-03-24T06:30:10.376Z,98497.70
2023-03-24T06:36:12.822Z,98500.59
2023-03-24T06:42:17.919Z,98495.54
2023-03-24T06:48:19.737Z,98488.17
2023-03-24T06:54:21.643Z,98482.38
2023-03-24T07:00:25.132Z,98479.34
2023-03-24T07:06:58.647Z,98474.57
2023-03-24T07:13:07.367Z,98471.45
2023-03-24T07:19:09.675Z,98473.15
2023-03-24T07:25:13.612Z,98470.39
2023-03-24T07:31:22.262Z,98465.50
2023-03-24T07:37:27.906Z,98460.12
2023-03-24T07:43:29.785Z,98460.68
2023-03-24T07:49:53.237Z,98454.27
2023-03-24T07:55:57.231Z,98451.90
2023-03-24T08:02:00.187Z,98442.61
2023-03-24T08:08:24.108Z,98434.25
2023-03-24T08:14:26.309Z,98421.14
2023-03-24T08:20:28.895Z,98411.41
2023-03-24T08:26:34.377Z,98399.88
2023-03-24T08:32:36.211Z,98392.89
2023-03-24T08:38:40.404Z,98391.24
2023-03-24T08:44:41.938Z,98383.27
2023-03-24T08:50:43.614Z,98376.98
2023-03-24T08:56:47.696Z,98369.65
2023-03-24T09:02:53.234Z,98357.17
2023-03-24T09:08:54.972Z,98353.64
2023-03-24T09:14:56.510Z,98351.48
2023-03-24T09:20:58.038Z,98343.33
2023-03-24T09:26:59.701Z,98340.48
2023-03-24T09:33:01.735Z,98320.98
2023-03-24T09:39:03.329Z,98305.80
2023-03-24T09:45:20.735Z,98301.11
2023-03-24T09:51:27.537Z,98294.96
2023-03-24T09:57:35.922Z,98285.02
2023-03-24T10:03:37.859Z,98271.42
2023-03-24T10:09:39.935Z,98267.47
2023-03-24T10:15:48.459Z,98259.42
2023-03-24T10:22:16.337Z,98246.19
2023-03-24T10:28:39.424Z,98239.24
2023-03-24T10:34:43.921Z,98228.64
2023-03-24T10:40:47.154Z,98218.86
2023-03-24T10:46:52.961Z,98215.15
2023-03-24T10:52:55.342Z,98209.09
2023-03-24T10:58:57.158Z,98214.38
2023-03-24T11:05:13.707Z,98208.36
2023-03-24T11:11:33.735Z,98201.09
2023-03-24T11:17:35.461Z,98194.26
2023-03-24T11:23:44.076Z,98182.78
2023-03-24T11:29:51.126Z,98171.60
2023-03-24T11:35:59.303Z,98167.81
2023-03-24T11:42:11.383Z,98152.19
2023-03-24T11:48:41.239Z,98150.52
2023-03-24T11:54:43.618Z,98141.89
2023-03-24T12:00:55.237Z,98134.41
2023-03-24T12:07:15.788Z,98130.25
2023-03-24T12:13:39.204Z,98128.65
2023-03-24T12:19:43.820Z,98122.81
2023-03-24T12:25:55.540Z,98121.27
2023-03-24T12:32:36.844Z,98118.05
2023-03-24T12:39:09.221Z,98112.92
2023-03-24T12:45:22.027Z,98106.09
2023-03-24T12:51:52.781Z,98104.89
2023-03-24T12:57:59.868Z,98099.33
2023-03-24T13:04:10.270Z,98093.76
2023-03-24T13:10:14.774Z,98085.45
2023-03-24T13:16:22.603Z,98081.79
2023-03-24T13:22:24.729Z,98079.65
2023-03-24T13:28:35.666Z,98068.70
2023-03-24T13:34:40.685Z,98075.61
2023-03-24T13:40:42.974Z,98071.17
2023-03-24T13:47:19.025Z,98072.73
2023-03-24T13:53:36.839Z,98064.95
2023-03-24T13:59:41.160Z,98063.15
2023-03-24T14:06:00.501Z,98059.30
2023-03-24T14:12:02.519Z,98057.43
2023-03-24T14:18:24.251Z,98054.39
2023-03-24T14:24:28.831Z,98044.44
2023-03-24T14:30:31.247Z,98029.02
2023-03-24T14:36:42.102Z,98022.05
2023-03-24T14:42:43.625Z,98016.87
2023-03-24T14:49:23.624Z,98010.63
2023-03-24T14:55:26.419Z,98010.42
2023-03-24T15:01:37.452Z,98002.94
2023-03-24T15:07:39.845Z,98000.80
2023-03-24T15:13:52.767Z,97993.07
2023-03-24T15:19:54.707Z,97984.20
2023-03-24T15:25:56.510Z,97979.73
2023-03-24T15:31:58.233Z,97976.46
2023-03-24T15:38:00.049Z,97972.80
2023-03-24T15:44:07.553Z,97972.45
2023-03-24T15:50:35.471Z,97974.29
2023-03-24T15:56:37.504Z,97981.52
2023-03-24T16:02:42.718Z,97978.84
2023-03-24T16:08:45.887Z,97985.27
2023-03-24T16:14:47.437Z,97983.06
2023-03-24T16:20:51.307Z,97980.66
2023-03-24T16:26:53.208Z,97984.09
2023-03-24T16:32:55.012Z,97990.90
2023-03-24T16:38:58.290Z,97996.80
2023-03-24T16:45:00.572Z,98004.72
2023-03-24T16:51:02.598Z,98018.02
2023-03-24T16:57:04.284Z,98024.05
2023-03-24T17:03:06.350Z,98028.27
2023-03-24T17:09:09.323Z,98038.86
2023-03-24T17:15:26.154Z,98052.36
2023-03-24T17:21:28.351Z,98056.39
2023-03-24T17:27:30.334Z,98057.10
2023-03-24T17:33:36.027Z,98055.36
2023-03-24T17:39:38.504Z,98055.39
2023-03-24T17:45:40.933Z,98054.88
2023-03-24T17:51:42.503Z,98059.37
2023-03-24T17:57:44.653Z,98068.15
2023-03-24T18:03:49.092Z,98079.26
2023-03-24T18:09:51.314Z,98082.02
2023-03-24T18:15:54.786Z,98081.32
2023-03-24T18:21:56.367Z,98087.23
2023-03-24T18:28:00.690Z,98096.77
2023-03-24T18:34:05.764Z,98116.55
2023-03-24T18:40:08.664Z,98120.48
2023-03-24T18:46:10.967Z,98122.06
2023-03-24T18:52:17.278Z,98112.38
2023-03-24T18:58:24.820Z,98106.13
2023-03-24T19:04:28.921Z,98113.10
2023-03-24T19:10:34.969Z,98117.98
2023-03-24T19:16:44.009Z,98115.50
2023-03-24T19:22:47.089Z,98118.13
2023-03-24T19:28:48.992Z,98125.48
2023-03-24T19:34:50.892Z,98108.73
2023-03-24T19:40:55.579Z,98090.48
2023-03-24T19:46:58.587Z,98075.14
2023-03-24T19:53:00.397Z,98074.02
2023-03-24T19:59:04.327Z,98074.86
2023-03-24T20:05:09.584Z,98070.70
2023-03-24T20:11:11.752Z,98068.77
2023-03-24T20:17:18.716Z,98057.52
2023-03-24T20:23:21.596Z,98057.89
2023-03-24T20:29:23.353Z,98052.17
2023-03-24T20:35:27.244Z,98054.04
2023-03-24T20:41:28.971Z,98059.58
2023-03-24T20:47:30.939Z,98061.79
2023-03-24T20:53:34.112Z,98073.66
2023-03-24T20:59:37.445Z,98076.30
2023-03-24T21:05:39.106Z,98079.70
2023-03-24T21:11:40.580Z,98084.21
2023-03-24T21:17:42.445Z,98086.26
2023-03-24T21:23:44.387Z,98083.85
2023-03-24T21:29:46.100Z,98083.94
2023-03-24T21:35:47.941Z,98083.83
2023-03-24T21:41:51.659Z,98066.35
2023-03-24T21:47:54.321Z,98061.69
2023-03-24T21:53:56.049Z,98063.84
2023-03-24T21:59:58.642Z,98059.73
2023-03-24T22:06:00.349Z,98064.69
2023-03-24T22:12:01.826Z,98071.98
2023-03-24T22:18:03.603Z,98075.37
2023-03-24T22:24:05.841Z,98071.75
2023-03-24T22:30:11.386Z,98069.36
2023-03-24T22:36:12.869Z,98064.64
2023-03-24T22:42:15.324Z,98058.64
2023-03-24T22:48:17.088Z,98058.98
2023-03-24T22:54:18.664Z,98051.79
2023-03-24T23:00:20.557Z,98048.45
2023-03-24T23:06:22.131Z,98039.92
2023-03-24T23:12:24.366Z,98039.82
2023-03-24T23:18:25.833Z,98044.98
2023-03-24T23:24:28.082Z,98043.19
2023-03-24T23:30:29.650Z,98052.39
2023-03-24T23:36:33.404Z,98048.05
2023-03-24T23:42:36.498Z,98037.27
2023-03-24T23:48:38.000Z,98032.80
2023-03-24T23:54:39.684Z,98032.16
